createdAt,value
2019-04-20T00:01:28.063Z,16.90
2019-04-20T00:03:55.583Z,16.93
2019-04-20T00:06:27.105Z,17.17
2019-04-20T00:09:04.982Z,17.13
2019-04-20T00:11:41.472Z,16.30
2019-04-20T00:14:07.064Z,16.73
2019-04-20T00:16:33.995Z,15.87
2019-04-20T00:19:05.454Z,16.23
2019-04-20T00:21:47.335Z,17.03
2019-04-20T00:24:23.424Z,16.40
2019-04-20T00:27:13.716Z,17.73
2019-04-20T00:29:40.494Z,16.67
2019-04-20T00:32:02.493Z,15.93
2019-04-20T00:34:31.601Z,17.90
2019-04-20T00:36:58.037Z,18.53
2019-04-20T00:39:28.338Z,17.63
2019-04-20T00:42:03.499Z,17.60
2019-04-20T00:44:36.007Z,18.03
2019-04-20T00:47:15.974Z,18.13
2019-04-20T00:49:48.276Z,18.23
2019-04-20T00:54:39.156Z,17.43
2019-04-20T00:57:20.394Z,18.17
2019-04-20T00:59:59.113Z,17.67
2019-04-20T01:02:25.816Z,16.97
2019-04-20T01:05:04.174Z,17.90
2019-04-20T01:07:34.712Z,17.00
2019-04-20T01:10:04.962Z,16.10
2019-04-20T01:12:38.785Z,16.10
2019-04-20T01:15:11.804Z,17.70
2019-04-20T01:17:41.755Z,16.13
2019-04-20T01:20:13.185Z,16.00
2019-04-20T01:22:51.474Z,15.53
2019-04-20T01:25:22.165Z,14.53
2019-04-20T01:28:06.751Z,15.17
2019-04-20T01:30:28.207Z,15.00
2019-04-20T01:33:03.495Z,13.33
2019-04-20T01:35:40.932Z,13.43
2019-04-20T01:38:12.390Z,12.80
2019-04-20T01:40:27.864Z,13.63
2019-04-20T01:42:59.419Z,13.70
2019-04-20T01:45:35.516Z,14.23
2019-04-20T01:48:03.013Z,14.53
2019-04-20T01:50:37.943Z,13.40
2019-04-20T01:53:16.471Z,12.87
2019-04-20T01:55:51.104Z,11.83
2019-04-20T01:58:36.396Z,12.63
2019-04-20T02:01:18.698Z,12.23
2019-04-20T02:04:00.336Z,12.07
2019-04-20T02:06:41.861Z,12.80
2019-04-20T02:09:11.913Z,11.83
2019-04-20T02:11:42.612Z,12.07
2019-04-20T02:14:11.956Z,11.83
2019-04-20T02:16:47.400Z,11.40
2019-04-20T02:19:26.649Z,11.67
2019-04-20T02:21:59.307Z,11.27
2019-04-20T02:24:17.874Z,11.93
2019-04-20T02:26:50.066Z,11.17
2019-04-20T02:29:43.053Z,10.90
2019-04-20T02:32:24.024Z,11.30
2019-04-20T02:40:39.773Z,10.90
2019-04-20T02:43:09.595Z,10.20
2019-04-20T02:50:44.107Z,10.77
2019-04-20T02:55:48.439Z,10.57
2019-04-20T02:58:18.696Z,10.57
2019-04-20T03:00:44.458Z,9.60
2019-04-20T03:03:03.238Z,10.23
2019-04-20T03:05:33.163Z,9.70
2019-04-20T03:08:08.953Z,9.20
2019-04-20T03:10:53.530Z,10.10
2019-04-20T03:13:18.321Z,10.77
2019-04-20T03:15:51.833Z,10.33
2019-04-20T03:18:23.119Z,10.60
2019-04-20T03:20:53.058Z,10.87
2019-04-20T03:23:30.046Z,10.13
2019-04-20T03:26:07.785Z,10.70
2019-04-20T03:28:51.106Z,9.80
2019-04-20T03:31:41.035Z,10.07
2019-04-20T03:34:41.679Z,9.70
2019-04-20T03:36:34.899Z,9.90
2019-04-20T03:38:57.339Z,10.43
2019-04-20T03:41:22.656Z,9.87
2019-04-20T03:43:45.600Z,8.83
2019-04-20T03:46:19.269Z,9.07
2019-04-20T03:49:04.510Z,9.80
2019-04-20T03:51:39.814Z,10.97
2019-04-20T03:54:16.955Z,11.00
2019-04-20T03:57:22.403Z,10.33
2019-04-20T04:00:01.805Z,11.47
2019-04-20T04:02:57.585Z,11.70
2019-04-20T04:05:23.585Z,11.17
2019-04-20T04:07:45.558Z,11.03
2019-04-20T04:10:24.944Z,11.63
2019-04-20T04:13:09.534Z,11.87
2019-04-20T04:15:44.770Z,10.70
2019-04-20T04:18:21.880Z,10.93
2019-04-20T04:20:56.565Z,11.37
2019-04-20T04:23:38.061Z,11.13
2019-04-20T04:26:08.624Z,11.13
2019-04-20T04:28:40.898Z,11.23
2019-04-20T04:31:11.910Z,11.73
2019-04-20T04:36:13.548Z,12.23
2019-04-20T04:38:54.640Z,11.33
2019-04-20T04:41:24.294Z,11.87
2019-04-20T04:44:00.640Z,12.80
2019-04-20T04:46:05.813Z,12.40
2019-04-20T04:48:41.100Z,12.37
2019-04-20T04:51:16.757Z,13.07
2019-04-20T04:53:51.108Z,13.80
2019-04-20T04:56:16.303Z,11.50
2019-04-20T04:58:44.610Z,12.30
2019-04-20T05:01:21.694Z,12.23
2019-04-20T05:04:19.093Z,11.97
2019-04-20T05:06:34.368Z,9.70
2019-04-20T05:09:00.214Z,9.87
2019-04-20T05:11:27.822Z,9.00
2019-04-20T05:14:03.599Z,9.07
2019-04-20T05:16:52.042Z,8.13
2019-04-20T05:19:23.436Z,8.23
2019-04-20T05:22:08.215Z,8.03
2019-04-20T05:24:48.449Z,8.20
2019-04-20T05:27:34.821Z,8.23
2019-04-20T05:29:44.775Z,8.20
2019-04-20T05:32:23.540Z,7.97
2019-04-20T05:35:12.062Z,8.40
2019-04-20T05:37:41.935Z,8.60
2019-04-20T05:40:20.576Z,8.10
2019-04-20T05:42:54.485Z,9.17
2019-04-20T05:45:22.010Z,7.80
2019-04-20T05:47:55.123Z,9.23
2019-04-20T05:50:28.920Z,8.37
2019-04-20T05:53:01.697Z,8.60
2019-04-20T05:55:35.961Z,8.07
2019-04-20T05:58:10.045Z,8.73
2019-04-20T06:00:40.577Z,8.83
2019-04-20T06:03:09.499Z,8.50
2019-04-20T06:05:45.881Z,8.37
2019-04-20T06:08:15.663Z,8.47
2019-04-20T06:10:45.580Z,8.30
2019-04-20T06:13:27.751Z,8.17
2019-04-20T06:16:38.360Z,7.97
2019-04-20T06:19:10.220Z,7.93
2019-04-20T06:21:41.736Z,8.50
2019-04-20T06:24:20.685Z,9.03
2019-04-20T06:26:53.662Z,9.00
2019-04-20T06:29:19.376Z,8.87
2019-04-20T06:31:53.482Z,8.67
2019-04-20T06:36:58.381Z,7.87
2019-04-20T06:39:40.654Z,9.00
2019-04-20T06:42:09.869Z,9.03
2019-04-20T06:44:50.851Z,8.03
2019-04-20T06:49:37.999Z,8.20
2019-04-20T06:52:32.575Z,9.17
2019-04-20T06:55:14.169Z,8.00
2019-04-20T06:57:50.763Z,8.03
2019-04-20T07:00:18.235Z,7.13
2019-04-20T07:03:04.750Z,7.80
2019-04-20T07:05:35.925Z,7.67
2019-04-20T07:08:06.985Z,8.47
2019-04-20T07:10:34.486Z,8.10
2019-04-20T07:12:55.287Z,8.17
2019-04-20T07:15:36.561Z,7.87
2019-04-20T07:18:18.638Z,8.33
2019-04-20T07:23:35.534Z,7.63
2019-04-20T07:26:06.648Z,6.90
2019-04-20T07:28:35.512Z,7.00
2019-04-20T07:31:03.739Z,7.57
2019-04-20T07:33:34.915Z,7.23
2019-04-20T07:36:05.925Z,7.37
2019-04-20T07:38:40.496Z,10.27
2019-04-20T07:41:08.954Z,6.87
2019-04-20T07:43:54.111Z,6.63
2019-04-20T07:46:21.901Z,7.10
2019-04-20T07:48:45.543Z,7.00
2019-04-20T07:51:06.886Z,6.87
2019-04-20T07:53:43.053Z,7.13
2019-04-20T07:56:25.606Z,6.93
2019-04-20T07:58:44.141Z,6.83
2019-04-20T08:01:45.426Z,6.90
2019-04-20T08:04:13.628Z,6.53
2019-04-20T08:06:42.168Z,6.60
2019-04-20T08:09:19.621Z,6.57
2019-04-20T08:12:04.883Z,6.47
2019-04-20T08:14:35.771Z,6.20
2019-04-20T08:17:14.214Z,6.67
2019-04-20T08:19:34.923Z,6.37
2019-04-20T08:22:09.494Z,5.97
2019-04-20T08:24:37.171Z,7.37
2019-04-20T08:27:00.329Z,11.13
2019-04-20T08:29:45.116Z,9.40
2019-04-20T08:32:56.696Z,6.80
2019-04-20T08:35:32.100Z,9.53
2019-04-20T08:38:35.013Z,8.47
2019-04-20T08:40:37.276Z,7.60
2019-04-20T08:43:20.101Z,5.77
2019-04-20T08:45:49.029Z,7.37
2019-04-20T08:48:18.918Z,5.93
2019-04-20T08:50:47.068Z,5.80
2019-04-20T08:55:45.051Z,5.50
2019-04-20T08:58:02.418Z,5.77
2019-04-20T09:00:39.652Z,5.47
2019-04-20T09:03:15.364Z,6.03
2019-04-20T09:05:50.000Z,5.40
2019-04-20T09:08:16.251Z,5.50
2019-04-20T09:11:01.505Z,5.20
2019-04-20T09:13:21.269Z,4.40
2019-04-20T09:15:44.718Z,4.80
2019-04-20T09:18:31.283Z,5.17
2019-04-20T09:21:01.535Z,4.70
2019-04-20T09:23:45.863Z,4.60
2019-04-20T09:26:24.692Z,4.03
2019-04-20T09:28:59.024Z,3.97
2019-04-20T09:31:35.806Z,4.60
2019-04-20T09:34:39.576Z,4.50
2019-04-20T09:37:29.616Z,4.60
2019-04-20T09:40:21.574Z,4.30
2019-04-20T09:43:06.550Z,4.47
2019-04-20T09:45:53.688Z,4.67
2019-04-20T09:48:31.308Z,5.07
2019-04-20T09:51:11.343Z,5.90
2019-04-20T09:53:36.002Z,5.03
2019-04-20T09:56:11.673Z,9.13
2019-04-20T09:58:52.991Z,10.37
2019-04-20T10:01:13.313Z,6.17
2019-04-20T10:03:31.257Z,5.47
2019-04-20T10:06:01.409Z,6.57
2019-04-20T10:08:34.919Z,6.37
2019-04-20T10:11:05.627Z,7.83
2019-04-20T10:13:36.337Z,4.50
2019-04-20T10:16:07.946Z,4.93
2019-04-20T10:18:42.507Z,6.00
2019-04-20T10:21:09.969Z,4.10
2019-04-20T10:23:40.695Z,3.97
2019-04-20T10:26:12.284Z,3.60
2019-04-20T10:28:43.633Z,4.03
2019-04-20T10:31:14.741Z,4.20
2019-04-20T10:33:45.924Z,3.67
2019-04-20T10:36:39.344Z,3.97
2019-04-20T10:39:11.045Z,3.50
2019-04-20T10:41:49.165Z,3.67
2019-04-20T10:44:14.593Z,2.97
2019-04-20T10:46:45.015Z,3.50
2019-04-20T10:49:15.465Z,3.33
2019-04-20T10:51:45.738Z,3.50
2019-04-20T10:54:16.400Z,3.53
2019-04-20T10:56:47.756Z,3.20
2019-04-20T10:59:19.332Z,3.10
2019-04-20T11:01:49.783Z,3.10
2019-04-20T11:04:20.907Z,3.53
2019-04-20T11:06:52.329Z,3.63
2019-04-20T11:09:22.751Z,3.07
2019-04-20T11:11:52.918Z,3.23
2019-04-20T11:14:29.759Z,2.87
2019-04-20T11:16:56.194Z,3.33
2019-04-20T11:19:27.415Z,2.67
2019-04-20T11:21:58.567Z,3.07
2019-04-20T11:24:30.171Z,2.63
2019-04-20T11:27:00.486Z,2.70
2019-04-20T11:29:31.901Z,2.60
2019-04-20T11:32:03.118Z,2.77
2019-04-20T11:34:38.411Z,2.77
2019-04-20T11:37:17.232Z,2.80
2019-04-20T11:39:47.492Z,2.80
2019-04-20T11:42:17.664Z,2.67
2019-04-20T11:44:48.841Z,2.90
2019-04-20T11:47:21.485Z,3.20
2019-04-20T11:49:51.860Z,3.20
2019-04-20T11:52:23.738Z,2.90
2019-04-20T11:54:54.663Z,2.50
2019-04-20T11:57:27.176Z,2.90
2019-04-20T11:59:59.378Z,2.90
2019-04-20T12:02:47.789Z,3.20
2019-04-20T12:05:27.804Z,2.43
2019-04-20T12:07:55.292Z,2.60
2019-04-20T12:10:27.981Z,3.07
2019-04-20T12:12:59.500Z,2.50
2019-04-20T12:15:34.519Z,2.47
2019-04-20T12:18:03.111Z,2.63
2019-04-20T12:20:34.545Z,2.90
2019-04-20T12:23:04.825Z,3.03
2019-04-20T12:25:36.750Z,2.70
2019-04-20T12:28:07.453Z,2.67
2019-04-20T12:30:37.837Z,2.10
2019-04-20T12:33:09.159Z,2.30
2019-04-20T12:35:40.325Z,2.30
2019-04-20T12:38:10.650Z,2.43
2019-04-20T12:40:42.013Z,2.20
2019-04-20T12:43:13.196Z,2.20
2019-04-20T12:45:44.138Z,2.33
2019-04-20T12:48:15.666Z,2.10
2019-04-20T12:50:45.946Z,2.30
2019-04-20T12:53:17.042Z,2.47
2019-04-20T12:55:48.446Z,2.40
2019-04-20T12:58:20.939Z,2.40
2019-04-20T13:00:52.591Z,3.47
2019-04-20T13:03:23.594Z,2.20
2019-04-20T13:05:54.332Z,2.20
2019-04-20T13:08:30.368Z,2.23
2019-04-20T13:11:11.048Z,2.20
2019-04-20T13:13:56.606Z,2.53
2019-04-20T13:16:34.417Z,2.47
2019-04-20T13:19:17.188Z,2.50
2019-04-20T13:21:47.398Z,2.20
2019-04-20T13:24:18.777Z,2.10
2019-04-20T13:26:49.185Z,1.90
2019-04-20T13:29:19.339Z,2.60
2019-04-20T13:31:52.071Z,2.17
2019-04-20T13:34:22.470Z,2.30
2019-04-20T13:36:52.771Z,2.67
2019-04-20T13:39:22.841Z,2.27
2019-04-20T13:42:03.419Z,2.30
2019-04-20T13:44:25.614Z,2.10
2019-04-20T13:46:56.714Z,2.30
2019-04-20T13:49:27.160Z,1.97
2019-04-20T13:51:57.277Z,2.20
2019-04-20T13:54:28.212Z,2.47
2019-04-20T13:57:00.626Z,2.17
2019-04-20T13:59:39.946Z,2.50
2019-04-20T14:02:17.159Z,2.67
2019-04-20T14:04:57.002Z,2.60
2019-04-20T14:07:27.622Z,2.47
2019-04-20T14:09:59.577Z,2.60
2019-04-20T14:12:35.084Z,3.47
2019-04-20T14:15:02.848Z,2.57
2019-04-20T14:17:33.257Z,2.70
2019-04-20T14:20:13.201Z,2.40
2019-04-20T14:22:42.989Z,2.40
2019-04-20T14:25:13.316Z,2.33
2019-04-20T14:27:44.760Z,2.60
2019-04-20T14:30:17.166Z,2.17
2019-04-20T14:32:50.417Z,2.60
2019-04-20T14:35:20.848Z,2.80
2019-04-20T14:37:52.089Z,2.27
2019-04-20T14:40:22.562Z,2.20
2019-04-20T14:42:54.817Z,2.30
2019-04-20T14:45:24.780Z,2.40
2019-04-20T14:48:07.845Z,2.27
2019-04-20T14:50:38.115Z,2.80
2019-04-20T14:53:09.511Z,2.77
2019-04-20T14:55:39.717Z,2.50
2019-04-20T14:58:29.132Z,2.80
2019-04-20T15:01:04.820Z,2.60
2019-04-20T15:03:40.989Z,2.60
2019-04-20T15:06:11.818Z,2.27
2019-04-20T15:08:42.897Z,2.10
2019-04-20T15:11:14.418Z,2.50
2019-04-20T15:13:44.862Z,2.13
2019-04-20T15:16:16.963Z,2.43
2019-04-20T15:18:52.986Z,2.13
2019-04-20T15:21:23.942Z,2.20
2019-04-20T15:23:55.340Z,2.57
2019-04-20T15:26:26.597Z,2.37
2019-04-20T15:28:57.042Z,2.50
2019-04-20T15:31:28.195Z,2.70
2019-04-20T15:33:59.090Z,2.53
2019-04-20T15:36:29.447Z,2.60
2019-04-20T15:39:01.022Z,2.60
2019-04-20T15:41:33.594Z,2.60
2019-04-20T15:44:03.909Z,2.43
2019-04-20T15:46:37.110Z,2.43
2019-04-20T15:49:08.347Z,2.73
2019-04-20T15:51:39.778Z,2.70
2019-04-20T15:54:11.412Z,2.77
2019-04-20T15:56:49.657Z,2.53
2019-04-20T15:59:14.659Z,2.70
2019-04-20T16:01:49.590Z,2.90
2019-04-20T16:04:41.192Z,3.27
2019-04-20T16:07:10.891Z,3.23
2019-04-20T16:09:42.150Z,3.13
2019-04-20T16:12:13.046Z,2.83
2019-04-20T16:14:43.852Z,2.80
2019-04-20T16:17:15.200Z,2.73
2019-04-20T16:19:54.509Z,2.47
2019-04-20T16:22:19.785Z,3.00
2019-04-20T16:24:56.089Z,3.30
2019-04-20T16:27:38.042Z,5.00
2019-04-20T16:30:09.805Z,4.00
2019-04-20T16:32:40.681Z,2.93
2019-04-20T16:35:12.246Z,2.80
2019-04-20T16:37:42.480Z,3.30
2019-04-20T16:40:13.942Z,4.07
2019-04-20T16:42:45.483Z,3.50
2019-04-20T16:45:17.239Z,3.00
2019-04-20T16:47:48.241Z,3.10
2019-04-20T16:50:19.326Z,3.87
2019-04-20T16:52:50.680Z,3.40
2019-04-20T16:55:20.967Z,2.90
2019-04-20T16:57:53.000Z,3.30
2019-04-20T17:00:23.416Z,4.27
2019-04-20T17:02:54.363Z,6.43
2019-04-20T17:05:25.572Z,4.70
2019-04-20T17:07:57.393Z,4.80
2019-04-20T17:10:28.861Z,3.30
2019-04-20T17:12:59.950Z,2.93
2019-04-20T17:15:30.206Z,3.03
2019-04-20T17:18:01.518Z,3.07
2019-04-20T17:20:32.963Z,3.00
2019-04-20T17:23:05.564Z,3.20
2019-04-20T17:25:35.866Z,3.10
2019-04-20T17:28:23.078Z,3.30
2019-04-20T17:31:15.659Z,3.40
2019-04-20T17:34:25.286Z,3.80
2019-04-20T17:36:40.464Z,3.50
2019-04-20T17:39:15.470Z,3.77
2019-04-20T17:42:03.015Z,3.33
2019-04-20T17:44:32.663Z,3.57
2019-04-20T17:47:00.599Z,3.80
2019-04-20T17:49:36.872Z,3.57
2019-04-20T17:52:22.615Z,4.03
2019-04-20T17:54:35.606Z,4.60
2019-04-20T17:57:09.015Z,4.70
2019-04-20T17:59:46.747Z,5.47
2019-04-20T18:02:53.466Z,5.97
2019-04-20T18:05:37.012Z,6.20
2019-04-20T18:08:10.223Z,5.83
2019-04-20T18:10:36.458Z,6.33
2019-04-20T18:12:56.537Z,6.20
2019-04-20T18:15:42.351Z,6.10
2019-04-20T18:18:32.075Z,6.30
2019-04-20T18:20:57.171Z,6.30
2019-04-20T18:23:34.431Z,5.87
2019-04-20T18:26:22.687Z,5.80
2019-04-20T18:28:58.064Z,6.63
2019-04-20T18:31:25.773Z,5.93
2019-04-20T18:34:06.992Z,5.87
2019-04-20T18:36:37.896Z,5.53
2019-04-20T18:39:10.262Z,6.03
2019-04-20T18:41:48.045Z,5.23
2019-04-20T18:44:12.928Z,5.20
2019-04-20T18:47:07.039Z,5.63
2019-04-20T18:49:27.170Z,5.90
2019-04-20T18:51:48.025Z,5.27
2019-04-20T18:54:23.494Z,5.50
2019-04-20T18:56:52.572Z,5.20
2019-04-20T18:59:24.393Z,5.97
2019-04-20T19:01:55.009Z,6.37
2019-04-20T19:04:25.919Z,6.23
2019-04-20T19:06:57.355Z,7.10
2019-04-20T19:09:30.429Z,8.53
2019-04-20T19:12:03.966Z,7.00
2019-04-20T19:14:51.720Z,6.93
2019-04-20T19:17:53.515Z,7.37
2019-04-20T19:20:23.367Z,8.17
2019-04-20T19:22:53.546Z,8.40
2019-04-20T19:25:30.524Z,9.33
2019-04-20T19:27:57.753Z,11.23
2019-04-20T19:30:35.481Z,9.90
2019-04-20T19:33:14.965Z,10.17
2019-04-20T19:35:41.713Z,9.53
2019-04-20T19:38:10.376Z,9.00
2019-04-20T19:40:47.778Z,8.57
2019-04-20T19:43:17.133Z,8.93
2019-04-20T19:46:07.171Z,7.67
2019-04-20T19:48:25.443Z,7.67
2019-04-20T19:51:05.815Z,7.37
2019-04-20T19:53:36.427Z,7.80
2019-04-20T19:55:59.055Z,9.17
2019-04-20T19:58:33.118Z,13.27
2019-04-20T20:00:54.210Z,22.50
2019-04-20T20:03:23.966Z,20.17
2019-04-20T20:05:56.477Z,23.60
2019-04-20T20:08:29.944Z,25.57
2019-04-20T20:11:01.336Z,20.00
2019-04-20T20:13:34.567Z,14.30
2019-04-20T20:16:10.540Z,14.63
2019-04-20T20:18:50.931Z,13.60
2019-04-20T20:21:22.596Z,13.53
2019-04-20T20:23:41.809Z,13.13
2019-04-20T20:26:20.703Z,11.97
2019-04-20T20:28:50.739Z,10.97
2019-04-20T20:31:23.372Z,10.67
2019-04-20T20:33:59.000Z,12.40
2019-04-20T20:36:23.280Z,11.57
2019-04-20T20:38:53.844Z,10.30
2019-04-20T20:41:28.960Z,10.13
2019-04-20T20:44:03.655Z,10.90
2019-04-20T20:46:34.872Z,9.33
2019-04-20T20:49:16.159Z,10.50
2019-04-20T20:52:02.472Z,11.30
2019-04-20T20:54:15.496Z,11.70
2019-04-20T20:56:46.688Z,9.87
2019-04-20T20:59:14.094Z,9.00
2019-04-20T21:01:50.388Z,8.80
2019-04-20T21:04:12.754Z,8.83
2019-04-20T21:06:42.857Z,9.37
2019-04-20T21:09:14.329Z,9.33
2019-04-20T21:11:46.382Z,9.80
2019-04-20T21:14:24.320Z,10.20
2019-04-20T21:16:58.592Z,12.57
2019-04-20T21:19:34.290Z,13.50
2019-04-20T21:22:00.004Z,13.17
2019-04-20T21:24:28.788Z,13.40
2019-04-20T21:27:06.737Z,12.67
2019-04-20T21:29:37.836Z,12.37
2019-04-20T21:32:08.663Z,11.37
2019-04-20T21:34:35.543Z,10.63
2019-04-20T21:37:11.844Z,12.00
2019-04-20T21:39:44.692Z,9.20
2019-04-20T21:42:15.914Z,9.10
2019-04-20T21:44:45.347Z,8.40
2019-04-20T21:47:21.843Z,9.00
2019-04-20T21:50:03.120Z,9.03
2019-04-20T21:52:29.908Z,8.73
2019-04-20T21:54:54.461Z,8.07
2019-04-20T21:57:26.009Z,8.60
2019-04-20T22:00:02.599Z,8.40
2019-04-20T22:02:32.735Z,8.30
2019-04-20T22:05:01.200Z,9.10
2019-04-20T22:07:32.889Z,8.87
2019-04-20T22:10:03.006Z,9.03
2019-04-20T22:12:39.687Z,8.83
2019-04-20T22:15:17.028Z,9.77
2019-04-20T22:17:40.798Z,9.13
2019-04-20T22:20:20.041Z,8.80
2019-04-20T22:23:01.127Z,9.20
2019-04-20T22:25:33.220Z,9.00
2019-04-20T22:27:48.295Z,8.90
2019-04-20T22:30:19.935Z,8.10
2019-04-20T22:32:53.234Z,8.13
2019-04-20T22:35:24.393Z,7.60
2019-04-20T22:38:07.011Z,7.07
2019-04-20T22:40:36.401Z,7.13
2019-04-20T22:43:06.485Z,7.70
2019-04-20T22:45:42.195Z,7.70
2019-04-20T22:48:12.431Z,8.07
2019-04-20T22:51:03.598Z,8.63
2019-04-20T22:53:29.864Z,8.27
2019-04-20T22:56:11.082Z,8.33
2019-04-20T22:58:28.710Z,8.87
2019-04-20T23:00:54.351Z,8.80
2019-04-20T23:03:20.932Z,8.10
2019-04-20T23:05:51.065Z,8.63
2019-04-20T23:08:22.423Z,8.10
2019-04-20T23:10:53.546Z,7.83
2019-04-20T23:13:29.445Z,7.53
2019-04-20T23:16:00.153Z,7.73
2019-04-20T23:18:28.456Z,8.93
2019-04-20T23:21:01.320Z,7.83
2019-04-20T23:23:31.007Z,7.93
2019-04-20T23:26:03.089Z,7.47
2019-04-20T23:28:33.421Z,7.27
2019-04-20T23:31:07.325Z,7.00
2019-04-20T23:33:36.087Z,7.23
2019-04-20T23:36:07.843Z,7.63
2019-04-20T23:38:38.979Z,7.40
2019-04-20T23:41:10.057Z,8.00
2019-04-20T23:43:45.287Z,7.07
2019-04-20T23:46:47.414Z,7.13
2019-04-20T23:49:32.701Z,7.20
2019-04-20T23:52:26.097Z,6.83
2019-04-20T23:54:33.654Z,7.10
2019-04-20T23:57:02.037Z,6.87
2019-04-20T23:59:39.245Z,7.03
